• Join FlightAware (Why Join?)
  • Login
  • US Flag 
01:48PM EDT


 

Airport Tracker/Info


-or-


 

Live Flight TrackerFlight Track Log ✈ XOJ549 ✈ 23-Jun-2013 ✈ KPVU - KAUS

Flight Track Log - Related Links

Times and Time Zones

All times are in EDT time to prevent confusion due to time zone crossing. See the XOJ549 flight status page for this flight to view local times or setup timezone preferences in your user account.

Time Position Orientation Groundspeed Altitude Reporting Facility
EDT Latitude Longitude Course Direction KTS MPH feet Rate Location/Type
01:42PM 40.2061 -111.7211 220° Southwest 194 223 5,200  Level Salt Lake Center
01:43PM 40.1758 -111.7539 220° Southwest 198 228 8,600 3,660 Climbing Salt Lake Center
01:44PM 40.1814 -111.8261 276° West 217 250 12,700 2,520 Climbing Salt Lake Center
01:45PM 40.2322 -111.8800 321° Northwest 296 341 14,000 600 Climbing Salt Lake Center
01:46PM 40.2739 -111.7683 64° Northeast 338 389 14,000  Level Salt Lake Center
01:47PM 40.2289 -111.6589 118° Southeast 348 400 14,100 1,320 Climbing Salt Lake Center
01:48PM 40.1831 -111.5517 119° Southeast 340 391 16,800 2,880 Climbing Salt Lake Center
01:49PM 40.1333 -111.4356 119° Southeast 365 420 20,200 3,300 Climbing Salt Lake Center
01:50PM 40.0844 -111.3169 118° Southeast 372 428 23,700 3,240 Climbing Salt Lake Center
01:51PM 40.0311 -111.1889 119° Southeast 370 426 26,900 3,000 Climbing Salt Lake Center
01:52PM 39.9725 -111.0506 119° Southeast 385 443 29,900 2,580 Climbing Salt Lake Center
01:53PM 39.9194 -110.9289 120° Southeast 398 458 32,300 2,280 Climbing Salt Lake Center
01:54PM 39.8567 -110.7858 120° Southeast 405 466 34,700 1,800 Climbing Salt Lake Center
01:56PM 39.8031 -110.6589 119° Southeast 415 478 36,100 1,320 Climbing Salt Lake Center
01:57PM 39.7367 -110.5042 119° Southeast 433 498 37,500 1,320 Climbing Salt Lake Center
01:58PM 39.6839 -110.3650 116° Southeast 448 516 38,900 1,380 Climbing Salt Lake Center
01:59PM 39.6308 -110.2272 117° Southeast 447 514 40,400 960 Climbing Salt Lake Center
02:00PM 39.5683 -110.0675 117° Southeast 446 513 41,000 240 Climbing Salt Lake Center
02:01PM 39.5117 -109.9253 117° Southeast 457 526 41,000  Level Salt Lake Center
02:02PM 39.4444 -109.7533 117° Southeast 474 545 41,000  Level Salt Lake Center
02:03PM 39.3858 -109.6069 117° Southeast 479 551 41,000  Level Salt Lake Center
02:04PM 39.3194 -109.4383 117° Southeast 476 548 41,000  Level Salt Lake Center
02:05PM 39.2594 -109.2925 118° Southeast 473 544 41,000  Level Denver Center
02:06PM 39.1928 -109.1244 117° Southeast 475 547 41,000  Level Denver Center
02:07PM 39.1347 -108.9797 117° Southeast 477 549 41,000  Level Denver Center
02:08PM 39.0658 -108.8122 118° Southeast 478 550 41,000  Level Denver Center
02:09PM 38.9956 -108.6783 124° Southeast 475 547 41,000  Level Denver Center
02:11PM 38.8367 -108.3911 125° Southeast 479 551 41,000  Level Denver Center
02:12PM 38.7508 -108.2364 125° Southeast 478 550 41,000  Level Denver Center
02:13PM 38.6758 -108.1039 126° Southeast 481 554 41,000  Level Denver Center
02:14PM 38.6019 -107.9714 125° Southeast 479 551 41,000  Level Denver Center
02:15PM 38.5164 -107.8167 125° Southeast 478 550 41,000  Level Denver Center
02:16PM 38.4411 -107.6869 127° Southeast 476 548 41,000  Level Denver Center
02:17PM 38.3550 -107.5339 126° Southeast 476 548 41,000  Level Denver Center
02:18PM 38.2797 -107.4033 126° Southeast 478 550 41,000  Level Denver Center
02:19PM 38.1917 -107.2500 126° Southeast 482 555 41,000  Level Denver Center
02:20PM 38.1178 -107.1233 127° Southeast 481 554 41,000  Level Denver Center
02:21PM 38.0278 -106.9653 126° Southeast 482 555 41,000  Level Denver Center
02:22PM 37.9519 -106.8350 126° Southeast 481 554 41,000  Level Denver Center
02:23PM 37.8633 -106.6842 127° Southeast 479 551 41,000  Level Denver Center
02:24PM 37.7931 -106.5622 126° Southeast 483 556 41,000  Level Denver Center
02:25PM 37.7031 -106.4108 127° Southeast 482 555 41,000  Level Denver Center
02:26PM 37.6250 -106.2814 127° Southeast 483 556 41,000  Level Denver Center
02:27PM 37.5339 -106.1281 127° Southeast 488 562 41,000  Level Denver Center
02:28PM 37.4572 -105.9989 127° Southeast 482 555 41,000  Level Denver Center
02:30PM 37.3686 -105.8506 127° Southeast 476 548 41,000  Level Denver Center
02:31PM 37.2769 -105.7364 135° Southeast 463 533 41,000  Level Denver Center
02:32PM 37.1825 -105.6339 139° Southeast 465 535 41,000  Level Denver Center
02:33PM 37.0722 -105.5144 139° Southeast 469 540 41,000  Level Denver Center
02:34PM 36.9769 -105.4111 139° Southeast 471 542 41,000  Level Denver Center
02:35PM 36.8656 -105.2906 139° Southeast 474 545 41,000  Level Denver Center
02:35PM 36.8028 -105.2217 139° Southeast 472 543 41,000  Level Albuquerque Center
02:36PM 36.6914 -105.1022 139° Southeast 472 543 41,000  Level Albuquerque Center
02:37PM 36.5908 -104.9947 139° Southeast 474 545 41,000  Level Albuquerque Center
02:39PM 36.4900 -104.8892 140° Southeast 470 541 41,000  Level Albuquerque Center
02:40PM 36.3897 -104.7822 139° Southeast 471 542 41,000  Level Albuquerque Center
02:41PM 36.2872 -104.6739 140° Southeast 476 548 41,000  Level Albuquerque Center
02:42PM 36.1694 -104.5500 140° Southeast 473 544 41,000  Level Albuquerque Center
02:43PM 36.0672 -104.4439 140° Southeast 475 547 41,000  Level Albuquerque Center
02:44PM 35.9650 -104.3375 140° Southeast 474 545 41,000  Level Albuquerque Center
02:45PM 35.8628 -104.2317 140° Southeast 475 547 41,000  Level Albuquerque Center
02:46PM 35.7606 -104.1239 139° Southeast 476 548 41,000  Level Albuquerque Center
02:47PM 35.6578 -104.0169 140° Southeast 477 549 41,000  Level Albuquerque Center
02:48PM 35.5536 -103.9086 140° Southeast 481 554 41,000  Level Albuquerque Center
02:49PM 35.4489 -103.8014 140° Southeast 481 554 41,000  Level Albuquerque Center
02:50PM 35.3450 -103.6953 140° Southeast 479 551 41,000  Level Albuquerque Center
02:51PM 35.2417 -103.5894 140° Southeast 478 550 41,000  Level Albuquerque Center
02:52PM 35.1206 -103.4664 140° Southeast 478 550 41,000  Level Albuquerque Center
02:53PM 35.0164 -103.3622 141° Southeast 478 550 41,000  Level Albuquerque Center
02:54PM 34.9133 -103.2583 140° Southeast 477 549 41,000  Level Albuquerque Center
02:55PM 34.8094 -103.1547 141° Southeast 476 548 41,000  Level Albuquerque Center
02:56PM 34.7072 -103.0506 140° Southeast 475 547 41,000  Level Albuquerque Center
02:57PM 34.6044 -102.9500 141° Southeast 472 543 41,000  Level Albuquerque Center
02:58PM 34.5025 -102.8469 140° Southeast 471 542 41,000  Level Albuquerque Center
02:59PM 34.4189 -102.7239 129° Southeast 475 547 41,000  Level Albuquerque Center
03:00PM 34.3217 -102.5739 128° Southeast 476 548 41,000  Level Albuquerque Center
03:01PM 34.2400 -102.4486 128° Southeast 475 547 41,000  Level Albuquerque Center
03:02PM 34.1706 -102.3411 128° Southeast 477 549 41,000  Level Albuquerque Center
03:03PM 34.0711 -102.1914 129° Southeast 477 549 41,000  Level Albuquerque Center
03:04PM 33.9883 -102.0667 129° Southeast 477 549 41,000  Level Albuquerque Center
03:05PM 33.9061 -101.9428 129° Southeast 475 547 41,000  Level Albuquerque Center
03:06PM 33.8228 -101.8175 129° Southeast 476 548 41,000  Level Albuquerque Center
03:07PM 33.7392 -101.6925 129° Southeast 478 550 41,000  Level Albuquerque Center
03:09PM 33.6317 -101.5322 129° Southeast 481 554 41,000  Level Fort Worth Center
03:10PM 33.5581 -101.4239 129° Southeast 476 548 41,000  Level Fort Worth Center
03:11PM 33.4683 -101.2881 128° Southeast 469 540 41,000  Level Fort Worth Center
03:12PM 33.3944 -101.1803 129° Southeast 464 534 41,000  Level Fort Worth Center
03:13PM 33.3025 -101.0444 129° Southeast 471 542 41,000  Level Fort Worth Center
03:14PM 33.2283 -100.9397 130° Southeast 465 535 41,000  Level Fort Worth Center
03:15PM 33.1439 -100.8197 130° Southeast 465 535 41,000  Level Fort Worth Center
03:16PM 33.0597 -100.6950 129° Southeast 465 535 41,000  Level Fort Worth Center
03:17PM 32.9772 -100.5756 129° Southeast 465 535 41,000  Level Fort Worth Center
03:18PM 32.8944 -100.4564 130° Southeast 465 535 41,000  Level Fort Worth Center
03:19PM 32.8097 -100.3350 130° Southeast 465 535 41,000  Level Fort Worth Center
03:20PM 32.7228 -100.2136 130° Southeast 465 535 41,000  Level Fort Worth Center
03:21PM 32.6253 -100.0822 131° Southeast 470 541 41,000  Level Fort Worth Center
03:22PM 32.5361 -99.9564 130° Southeast 483 556 41,000  Level Fort Worth Center
03:23PM 32.4425 -99.8431 134° Southeast 488 562 41,000  Level Fort Worth Center
03:24PM 32.3289 -99.7661 150° Southeast 475 547 41,000  Level Fort Worth Center
03:25PM 32.2136 -99.6894 151° Southeast 475 547 41,000  Level Fort Worth Center
03:26PM 32.0981 -99.6156 152° Southeast 475 547 41,000 -60 Level Fort Worth Center
03:28PM 31.8603 -99.4572 150° Southeast 473 544 40,900 -900 Descending Houston Center
03:29PM 31.7547 -99.3292 134° Southeast 465 535 38,200 -2,520 Descending Houston Center
03:30PM 31.6639 -99.2175 134° Southeast 469 540 35,700 -2,400 Descending Houston Center
03:31PM 31.5772 -99.1117 134° Southeast 451 519 33,300 -2,280 Descending Houston Center
03:32PM 31.4919 -99.0072 134° Southeast 440 506 31,000 -2,280 Descending Houston Center
03:33PM 31.4014 -98.8997 135° Southeast 457 526 28,600 -2,340 Descending Houston Center
03:34PM 31.3100 -98.7886 134° Southeast 470 541 26,200 -2,280 Descending Houston Center
03:35PM 31.2228 -98.6797 133° Southeast 457 526 23,900 -2,220 Descending Houston Center
03:36PM 31.1367 -98.5775 135° Southeast 442 509 21,700 -2,280 Descending Houston Center
03:37PM 31.0408 -98.4628 134° Southeast 422 486 19,200 -2,220 Descending Houston Center
03:38PM 30.9647 -98.3706 134° Southeast 398 458 17,200 -1,920 Descending Houston Center
03:39PM 30.8886 -98.2803 134° Southeast 388 447 15,300 -1,860 Descending Houston Center
03:40PM 30.8142 -98.1917 134° Southeast 383 441 13,400 -2,100 Descending Houston Center
03:41PM 30.7450 -98.1072 134° Southeast 365 420 11,000 -1,800 Descending Houston Center
03:42PM 30.6897 -98.0283 129° Southeast 325 374 9,700 -1,620 Descending Houston Center
03:43PM 30.6386 -97.9461 126° Southeast 276 318 7,700 -1,800 Descending Houston Center
03:44PM 30.5956 -97.8764 126° Southeast 267 307 6,000 -1,380 Descending Houston Center
03:45PM 30.5547 -97.8111 126° Southeast 254 292 4,900 -1,320 Descending Houston Center
03:46PM 30.5144 -97.7492 127° Southeast 244 281 3,300 -960 Descending Houston Center
03:47PM 30.4722 -97.6942 132° Southeast 236 272 3,000 -180 Descending Houston Center
03:49PM 30.4247 -97.6639 151° Southeast 218 251 3,000  Level Houston Center
03:50PM 30.3683 -97.6603 177° South 207 238 3,000 -240 Level Houston Center
03:51PM 30.3142 -97.6603 180° South 183 211 2,600 -660 Descending Houston Center
03:52PM 30.2714 -97.6594 179° South 162 186 1,700 -780 Descending Houston Center
03:53PM 30.2353 -97.6583 178° South 157 181 1,100 -600 Descending Houston Center
03:55PM 30.1945 -97.6699 221° Southwest  Level Estimated
04:02PM 30.1945 -97.6699 221° Southwest  Level Estimated